Emu Arrow — C6OR4 — position and weather

sailwx.info

Track history (hours):
 
Tides and Currents Weather Stations Pressure Air Temp Water Temp Dewpoint Dewpoint Depression Visibility Wind Speed Wind Dir Waves Ship Positions

Emu Arrow

Last reported at 2015-Feb-18 15:08 UTC. Time now 2015-Mar-04 16:50 UTC.
Position N 22°14' E 120°16'.
Warning: this ship's position is 14 days out of date.

Length 200 m; draft 7.3 m.

Type: Cargo ship. MMSI: 309805000.

Date/timePositionNaut miles runAvg speedWind from/ knotsBaromVisibWave heightAir tempDewpointWater temp
2015-Feb-18 15:08N 22°14' E 120°16'915.5
2015-Feb-18 14:33N 22°22' E 120°14'1111.3
2015-Feb-18 13:33N 22°33' E 120°18'1 1.3
2015-Feb-18 12:33N 22°34' E 120°18'0 0.0
2015-Feb-18 11:26N 22°34' E 120°18'0 0.0
2015-Feb-18 10:32N 22°34' E 120°18'0 0.0
2015-Feb-18 09:32N 22°34' E 120°18'0 0.0
2015-Feb-18 08:32N 22°34' E 120°18'0 0.0
2015-Feb-18 07:32N 22°34' E 120°18'0 0.0
2015-Feb-18 06:32N 22°34' E 120°18'0 0.0
2015-Feb-18 05:32N 22°34' E 120°18'0 0.0
2015-Feb-18 04:26N 22°34' E 120°18'0 0.0
2015-Feb-18 03:33N 22°34' E 120°18'3 2.7
2015-Feb-18 02:33N 22°33' E 120°16'7 6.5
2015-Feb-18 01:33N 22°35' E 120°10'1212.0
2015-Feb-18 00:33N 22°46' E 120°04'51014.5
2015-Feb-16 13:26N 30°51' E 123°01'2813.0
2015-Feb-16 11:15N 31°05' E 122°32'710.2
2015-Feb-16 10:33N 31°06' E 122°24'1111.4
2015-Feb-16 09:33N 31°10' E 122°12'1414.0
2015-Feb-16 08:34N 31°15' E 121°56'1413.9
2015-Feb-16 07:33N 31°20' E 121°41'1111.1
2015-Feb-16 06:33N 31°26' E 121°30'10 9.9
2015-Feb-16 05:33N 31°32' E 121°21'1212.5
2015-Feb-16 04:33N 31°41' E 121°11'1411.2
2015-Feb-16 03:18N 31°47' E 120°56'810.7
2015-Feb-16 02:31N 31°55' E 120°52'7 6.9
2015-Feb-16 01:31N 31°60' E 120°47'0 0.1
2015-Feb-16 00:31N 31°60' E 120°47'0 0.0
2015-Feb-15 23:30N 31°60' E 120°47'0 0.0
2015-Feb-15 22:30N 31°60' E 120°47'0 0.0
2015-Feb-15 21:30N 31°60' E 120°47'0 0.0
2015-Feb-15 20:30N 31°60' E 120°47'0 0.0
2015-Feb-15 19:19N 31°60' E 120°47'0 0.0
2015-Feb-15 18:31N 31°60' E 120°47'0 0.1
2015-Feb-15 17:31N 31°60' E 120°46'0 0.1
2015-Feb-15 16:25N 31°60' E 120°46'0 0.1
2015-Feb-15 15:30N 31°60' E 120°46'0 0.1
2015-Feb-15 14:30N 31°60' E 120°47'0 0.0
2015-Feb-15 13:19N 31°60' E 120°47'0 0.0
2015-Feb-15 12:19N 31°60' E 120°47'0 0.0
2015-Feb-15 11:31N 31°60' E 120°47'0 0.0
2015-Feb-15 10:31N 31°60' E 120°47'0 0.0
2015-Feb-15 09:25N 31°60' E 120°47'0 0.1
2015-Feb-15 08:30N 31°60' E 120°47'0 0.1
2015-Feb-15 06:12N 32°00' E 120°46'0 0.1
2015-Feb-15 05:30N 32°00' E 120°46'0 0.0
2015-Feb-15 03:24N 31°60' E 120°46'0 0.0
2015-Feb-15 02:12N 31°60' E 120°46'0 0.0
2015-Feb-15 01:30N 32°00' E 120°46'0 0.2
2015-Feb-15 00:30N 32°00' E 120°46'0 0.0
2015-Feb-14 21:21N 31°60' E 120°47'0 0.0
2015-Feb-14 19:33N 31°60' E 120°47'0 0.0
2015-Feb-14 17:15N 31°60' E 120°47'0 0.2
2015-Feb-14 16:24N 32°00' E 120°46'0 0.0
2015-Feb-14 15:31N 32°00' E 120°46'0 0.0
2015-Feb-14 14:31N 32°00' E 120°46'0 0.0
2015-Feb-14 13:31N 32°00' E 120°46'0 0.2
2015-Feb-14 12:30N 31°60' E 120°47'0 0.0
2015-Feb-14 11:30N 31°60' E 120°47'0 0.0
2015-Feb-14 10:12N 31°60' E 120°47'0 0.0
2015-Feb-14 09:24N 31°60' E 120°47'0 0.0
2015-Feb-14 08:33N 31°60' E 120°47'0 0.0
2015-Feb-14 07:30N 31°60' E 120°47'0 0.0
2015-Feb-14 06:33N 31°60' E 120°47'1 0.7
2015-Feb-14 05:33N 32°00' E 120°47'9 8.5
2015-Feb-14 04:33N 31°53' E 120°53'1110.0
2015-Feb-14 03:28N 31°46' E 121°03'1213.0
2015-Feb-14 02:32N 31°39' E 121°14'1212.4
2015-Feb-14 01:33N 31°30' E 121°25'8 8.3
2015-Feb-14 00:33N 31°25' E 121°32'1010.1
2015-Feb-13 23:33N 31°20' E 121°42'1212.3
2015-Feb-13 22:33N 31°16' E 121°56'1211.6
2015-Feb-13 21:33N 31°12' E 122°09'1212.0
2015-Feb-13 20:33N 31°06' E 122°21'8 8.1
2015-Feb-13 19:33N 31°07' E 122°30'7 6.6
2015-Feb-13 18:33N 31°11' E 122°37'0 0.2
2015-Feb-13 17:31N 31°10' E 122°37'0 0.1
2015-Feb-13 16:19N 31°10' E 122°37'0 0.1
2015-Feb-13 15:31N 31°10' E 122°37'0 0.0
2015-Feb-13 14:19N 31°10' E 122°37'0 0.1
2015-Feb-13 13:26N 31°11' E 122°37'8 7.0
2015-Feb-13 12:15N 31°15' E 122°45'264 8.6
2015-Feb-12 05:33N 34°47' E 119°38'9 8.8
2015-Feb-12 04:33N 34°45' E 119°27'0 0.3
2015-Feb-12 03:32N 34°44' E 119°27'0 0.0
2015-Feb-12 02:33N 34°44' E 119°27'0 0.0
2015-Feb-12 01:33N 34°44' E 119°27'0 0.0
2015-Feb-12 00:32N 34°44' E 119°27'0 0.0
2015-Feb-11 23:33N 34°44' E 119°27'0 0.0
2015-Feb-11 22:33N 34°44' E 119°27'0 0.0
2015-Feb-11 21:33N 34°44' E 119°27'0 0.0
2015-Feb-11 20:33N 34°44' E 119°27'0 0.0
2015-Feb-11 19:29N 34°44' E 119°27'0 0.0
2015-Feb-11 18:29N 34°44' E 119°27'0 0.0
2015-Feb-11 17:27N 34°44' E 119°27'0 0.0
2015-Feb-11 16:33N 34°44' E 119°27'0 0.0
2015-Feb-11 15:31N 34°44' E 119°27'0 0.0
2015-Feb-11 14:33N 34°44' E 119°27'0 0.0
2015-Feb-11 13:32N 34°44' E 119°27'0 0.0
2015-Feb-11 12:33N 34°44' E 119°27'0 0.0
2015-Feb-11 11:32N 34°44' E 119°27'0 0.0
2015-Feb-11 10:31N 34°44' E 119°27'0 0.0
2015-Feb-11 09:33N 34°44' E 119°27'0 0.0
2015-Feb-11 08:33N 34°44' E 119°27'0 0.0
2015-Feb-11 07:33N 34°44' E 119°27'0 0.0
2015-Feb-11 06:30N 34°44' E 119°27'0 0.0
2015-Feb-11 05:29N 34°44' E 119°27'0 0.0
2015-Feb-11 04:31N 34°44' E 119°27'0 0.0
2015-Feb-11 03:33N 34°44' E 119°27'0 0.0
2015-Feb-11 02:28N 34°44' E 119°27'0 0.0
2015-Feb-11 01:32N 34°44' E 119°27'0 0.0
2015-Feb-11 00:32N 34°44' E 119°27'0 0.0
2015-Feb-10 23:29N 34°44' E 119°27'0 0.0
2015-Feb-10 22:32N 34°44' E 119°27'0 0.0
2015-Feb-10 21:32N 34°44' E 119°27'0 0.0
2015-Feb-10 20:32N 34°44' E 119°27'0 0.0
2015-Feb-10 19:29N 34°44' E 119°27'0 0.0
2015-Feb-10 18:30N 34°44' E 119°27'0 0.0
2015-Feb-10 17:30N 34°44' E 119°27'0 0.0
2015-Feb-10 16:33N 34°44' E 119°27'0 0.0
2015-Feb-10 15:29N 34°44' E 119°27'0 0.0
2015-Feb-10 14:29N 34°44' E 119°27'0 0.0
2015-Feb-10 13:32N 34°44' E 119°27'0 0.0
2015-Feb-10 12:33N 34°44' E 119°27'0 0.0
2015-Feb-10 11:33N 34°44' E 119°27'0 0.0
2015-Feb-10 10:31N 34°44' E 119°27'0 0.0
2015-Feb-10 09:31N 34°44' E 119°27'0 0.0
2015-Feb-10 08:33N 34°44' E 119°27'6 5.7
2015-Feb-10 07:29N 34°46' E 119°34'910.1
2015-Feb-10 06:33N 34°51' E 119°44'3 3.1
2015-Feb-10 05:28N 34°53' E 119°47'0 0.0
2015-Feb-10 04:29N 34°53' E 119°47'2 2.4
2015-Feb-10 03:33N 34°53' E 119°50'10 9.3
2015-Feb-10 02:26N 34°56' E 120°02'  
Track history (hours):
 
Tides and Currents Weather Stations Pressure Air Temp Water Temp Dewpoint Dewpoint Depression Visibility Wind Speed Wind Dir Waves Ship Positions

Emu Arrow

Last reported at 2015-Feb-18 15:08 UTC. Time now 2015-Mar-04 16:50 UTC.
Position N 22°14' E 120°16'.
Warning: this ship's position is 14 days out of date.

Length 200 m; draft 7.3 m.

Type: Cargo ship. MMSI: 309805000.

Date/timePositionNaut miles runAvg speedWind from/ knotsBaromVisibWave heightAir tempDewpointWater temp
2015-Feb-18 15:08N 22°14' E 120°16'915.5
2015-Feb-18 14:33N 22°22' E 120°14'1111.3
2015-Feb-18 13:33N 22°33' E 120°18'1 1.3
2015-Feb-18 12:33N 22°34' E 120°18'0 0.0
2015-Feb-18 11:26N 22°34' E 120°18'0 0.0
2015-Feb-18 10:32N 22°34' E 120°18'0 0.0
2015-Feb-18 09:32N 22°34' E 120°18'0 0.0
2015-Feb-18 08:32N 22°34' E 120°18'0 0.0
2015-Feb-18 07:32N 22°34' E 120°18'0 0.0
2015-Feb-18 06:32N 22°34' E 120°18'0 0.0
2015-Feb-18 05:32N 22°34' E 120°18'0 0.0
2015-Feb-18 04:26N 22°34' E 120°18'0 0.0
2015-Feb-18 03:33N 22°34' E 120°18'3 2.7
2015-Feb-18 02:33N 22°33' E 120°16'7 6.5
2015-Feb-18 01:33N 22°35' E 120°10'1212.0
2015-Feb-18 00:33N 22°46' E 120°04'51014.5
2015-Feb-16 13:26N 30°51' E 123°01'2813.0
2015-Feb-16 11:15N 31°05' E 122°32'710.2
2015-Feb-16 10:33N 31°06' E 122°24'1111.4
2015-Feb-16 09:33N 31°10' E 122°12'1414.0
2015-Feb-16 08:34N 31°15' E 121°56'1413.9
2015-Feb-16 07:33N 31°20' E 121°41'1111.1
2015-Feb-16 06:33N 31°26' E 121°30'10 9.9
2015-Feb-16 05:33N 31°32' E 121°21'1212.5
2015-Feb-16 04:33N 31°41' E 121°11'1411.2
2015-Feb-16 03:18N 31°47' E 120°56'810.7
2015-Feb-16 02:31N 31°55' E 120°52'7 6.9
2015-Feb-16 01:31N 31°60' E 120°47'0 0.1
2015-Feb-16 00:31N 31°60' E 120°47'0 0.0
2015-Feb-15 23:30N 31°60' E 120°47'0 0.0
2015-Feb-15 22:30N 31°60' E 120°47'0 0.0
2015-Feb-15 21:30N 31°60' E 120°47'0 0.0
2015-Feb-15 20:30N 31°60' E 120°47'0 0.0
2015-Feb-15 19:19N 31°60' E 120°47'0 0.0
2015-Feb-15 18:31N 31°60' E 120°47'0 0.1
2015-Feb-15 17:31N 31°60' E 120°46'0 0.1
2015-Feb-15 16:25N 31°60' E 120°46'0 0.1
2015-Feb-15 15:30N 31°60' E 120°46'0 0.1
2015-Feb-15 14:30N 31°60' E 120°47'0 0.0
2015-Feb-15 13:19N 31°60' E 120°47'0 0.0
2015-Feb-15 12:19N 31°60' E 120°47'0 0.0
2015-Feb-15 11:31N 31°60' E 120°47'0 0.0
2015-Feb-15 10:31N 31°60' E 120°47'0 0.0
2015-Feb-15 09:25N 31°60' E 120°47'0 0.1
2015-Feb-15 08:30N 31°60' E 120°47'0 0.1
2015-Feb-15 06:12N 32°00' E 120°46'0 0.1
2015-Feb-15 05:30N 32°00' E 120°46'0 0.0
2015-Feb-15 03:24N 31°60' E 120°46'0 0.0
2015-Feb-15 02:12N 31°60' E 120°46'0 0.0
2015-Feb-15 01:30N 32°00' E 120°46'0 0.2
2015-Feb-15 00:30N 32°00' E 120°46'0 0.0
2015-Feb-14 21:21N 31°60' E 120°47'0 0.0
2015-Feb-14 19:33N 31°60' E 120°47'0 0.0
2015-Feb-14 17:15N 31°60' E 120°47'0 0.2
2015-Feb-14 16:24N 32°00' E 120°46'0 0.0
2015-Feb-14 15:31N 32°00' E 120°46'0 0.0
2015-Feb-14 14:31N 32°00' E 120°46'0 0.0
2015-Feb-14 13:31N 32°00' E 120°46'0 0.2
2015-Feb-14 12:30N 31°60' E 120°47'0 0.0
2015-Feb-14 11:30N 31°60' E 120°47'0 0.0
2015-Feb-14 10:12N 31°60' E 120°47'0 0.0
2015-Feb-14 09:24N 31°60' E 120°47'0 0.0
2015-Feb-14 08:33N 31°60' E 120°47'0 0.0
2015-Feb-14 07:30N 31°60' E 120°47'0 0.0
2015-Feb-14 06:33N 31°60' E 120°47'1 0.7
2015-Feb-14 05:33N 32°00' E 120°47'9 8.5
2015-Feb-14 04:33N 31°53' E 120°53'1110.0
2015-Feb-14 03:28N 31°46' E 121°03'1213.0
2015-Feb-14 02:32N 31°39' E 121°14'1212.4
2015-Feb-14 01:33N 31°30' E 121°25'8 8.3
2015-Feb-14 00:33N 31°25' E 121°32'1010.1
2015-Feb-13 23:33N 31°20' E 121°42'1212.3
2015-Feb-13 22:33N 31°16' E 121°56'1211.6
2015-Feb-13 21:33N 31°12' E 122°09'1212.0
2015-Feb-13 20:33N 31°06' E 122°21'8 8.1
2015-Feb-13 19:33N 31°07' E 122°30'7 6.6
2015-Feb-13 18:33N 31°11' E 122°37'0 0.2
2015-Feb-13 17:31N 31°10' E 122°37'0 0.1
2015-Feb-13 16:19N 31°10' E 122°37'0 0.1
2015-Feb-13 15:31N 31°10' E 122°37'0 0.0
2015-Feb-13 14:19N 31°10' E 122°37'0 0.1
2015-Feb-13 13:26N 31°11' E 122°37'8 7.0
2015-Feb-13 12:15N 31°15' E 122°45'264 8.6
2015-Feb-12 05:33N 34°47' E 119°38'9 8.8
2015-Feb-12 04:33N 34°45' E 119°27'0 0.3
2015-Feb-12 03:32N 34°44' E 119°27'0 0.0
2015-Feb-12 02:33N 34°44' E 119°27'0 0.0
2015-Feb-12 01:33N 34°44' E 119°27'0 0.0
2015-Feb-12 00:32N 34°44' E 119°27'0 0.0
2015-Feb-11 23:33N 34°44' E 119°27'0 0.0
2015-Feb-11 22:33N 34°44' E 119°27'0 0.0
2015-Feb-11 21:33N 34°44' E 119°27'0 0.0
2015-Feb-11 20:33N 34°44' E 119°27'0 0.0
2015-Feb-11 19:29N 34°44' E 119°27'0 0.0
2015-Feb-11 18:29N 34°44' E 119°27'0 0.0
2015-Feb-11 17:27N 34°44' E 119°27'0 0.0
2015-Feb-11 16:33N 34°44' E 119°27'0 0.0
2015-Feb-11 15:31N 34°44' E 119°27'0 0.0
2015-Feb-11 14:33N 34°44' E 119°27'0 0.0
2015-Feb-11 13:32N 34°44' E 119°27'0 0.0
2015-Feb-11 12:33N 34°44' E 119°27'0 0.0
2015-Feb-11 11:32N 34°44' E 119°27'0 0.0
2015-Feb-11 10:31N 34°44' E 119°27'0 0.0
2015-Feb-11 09:33N 34°44' E 119°27'0 0.0
2015-Feb-11 08:33N 34°44' E 119°27'0 0.0
2015-Feb-11 07:33N 34°44' E 119°27'0 0.0
2015-Feb-11 06:30N 34°44' E 119°27'0 0.0
2015-Feb-11 05:29N 34°44' E 119°27'0 0.0
2015-Feb-11 04:31N 34°44' E 119°27'0 0.0
2015-Feb-11 03:33N 34°44' E 119°27'0 0.0
2015-Feb-11 02:28N 34°44' E 119°27'0 0.0
2015-Feb-11 01:32N 34°44' E 119°27'0 0.0
2015-Feb-11 00:32N 34°44' E 119°27'0 0.0
2015-Feb-10 23:29N 34°44' E 119°27'0 0.0
2015-Feb-10 22:32N 34°44' E 119°27'0 0.0
2015-Feb-10 21:32N 34°44' E 119°27'0 0.0
2015-Feb-10 20:32N 34°44' E 119°27'0 0.0
2015-Feb-10 19:29N 34°44' E 119°27'0 0.0
2015-Feb-10 18:30N 34°44' E 119°27'0 0.0
2015-Feb-10 17:30N 34°44' E 119°27'0 0.0
2015-Feb-10 16:33N 34°44' E 119°27'0 0.0
2015-Feb-10 15:29N 34°44' E 119°27'0 0.0
2015-Feb-10 14:29N 34°44' E 119°27'0 0.0
2015-Feb-10 13:32N 34°44' E 119°27'0 0.0
2015-Feb-10 12:33N 34°44' E 119°27'0 0.0
2015-Feb-10 11:33N 34°44' E 119°27'0 0.0
2015-Feb-10 10:31N 34°44' E 119°27'0 0.0
2015-Feb-10 09:31N 34°44' E 119°27'0 0.0
2015-Feb-10 08:33N 34°44' E 119°27'6 5.7
2015-Feb-10 07:29N 34°46' E 119°34'910.1
2015-Feb-10 06:33N 34°51' E 119°44'3 3.1
2015-Feb-10 05:28N 34°53' E 119°47'0 0.0
2015-Feb-10 04:29N 34°53' E 119°47'2 2.4
2015-Feb-10 03:33N 34°53' E 119°50'10 9.3
2015-Feb-10 02:26N 34°56' E 120°02'  

Dump ship's entire track history